PWSweather.com
Personal Weather Stations
Station Observations
VAB41
Cheltenham Square, Virginia Beach, VA 23454

Cheltenham SquareVirginia Beach, VA 23454

Lat: 36.832882, Lon: -76.054038

Elevation: 12

Station Type: Ambient WS 2080

Latest ConditionsUpdated 2:45:00 PM EDT Tuesday, Sep 2, 2014
Currently Today's Max Today's Min Today's Average
Temperature 96.3°F35.7°C 97.0°F36.1°C 77.4°F25.2°C 83.8°F28.8°C
Dew Point 69.5°F20.8°C 77.5°F25.3°C 69.5°F20.8°C 75.2°F24.0°C
Winds 3.1 mph SW5.0 kmh SW 8.3 mph SSW13.4 kmh SSW - 2.5 mph 4.0 kmh
Wind Gusts 9.2 mph14.8 kmh 13.6 mph21.9 kmh - -
Humidity 42% 95% 42% 78%
Pressure 29.67 in1004.7 mb 29.91 in1012.9 mb 29.67 in1004.7 mb -
Hour Temp Dew Point Humidity Winds Wind Gusts Pressure Precip Precip Rate Daily Precip Total
02:45 PM 96.3°F35.7°C 69.5°F20.8°C 42% 3.1 mph SW5.0 kmh SW 9.2 mph14.8 kmh 29.67 in1004.7 mb 0.00 in0.0 mm 0.00 in/hr0.0 mm/hr 0.00 in0.0 mm
02:40 PM 97.0°F36.1°C 70.2°F21.2°C 42% 5.4 mph SW8.7 kmh SW 9.2 mph14.8 kmh 29.68 in1005.1 mb 0.00 in0.0 mm 0.00 in/hr0.0 mm/hr 0.00 in0.0 mm
02:35 PM 96.8°F36.0°C 70.0°F21.1°C 42% 2.2 mph S3.5 kmh S 7.6 mph12.2 kmh 29.68 in1005.1 mb 0.00 in0.0 mm 0.00 in/hr0.0 mm/hr 0.00 in0.0 mm
02:30 PM 96.8°F36.0°C 70.0°F21.1°C 42% 3.1 mph S5.0 kmh S 8.3 mph13.4 kmh 29.69 in1005.4 mb 0.00 in0.0 mm 0.00 in/hr0.0 mm/hr 0.00 in0.0 mm
02:25 PM 96.4°F35.8°C 71.7°F22.1°C 45% 4.5 mph S7.2 kmh S 8.3 mph13.4 kmh 29.70 in1005.8 mb 0.00 in0.0 mm 0.00 in/hr0.0 mm/hr 0.00 in0.0 mm
02:20 PM 95.9°F35.5°C 71.2°F21.8°C 45% 3.1 mph S5.0 kmh S 13.6 mph21.9 kmh 29.70 in1005.8 mb 0.00 in0.0 mm 0.00 in/hr0.0 mm/hr 0.00 in0.0 mm
02:15 PM 95.7°F35.4°C 70.4°F21.3°C 44% 5.4 mph S8.7 kmh S 13.6 mph21.9 kmh 29.71 in1006.1 mb 0.00 in0.0 mm 0.00 in/hr0.0 mm/hr 0.00 in0.0 mm
02:10 PM 96.1°F35.6°C 71.4°F21.9°C 45% 6.9 mph SSW11.1 kmh SSW 9.8 mph15.8 kmh 29.71 in1006.1 mb 0.00 in0.0 mm 0.00 in/hr0.0 mm/hr 0.00 in0.0 mm
02:05 PM 95.7°F35.4°C 71.1°F21.7°C 45% 5.4 mph S8.7 kmh S 10.7 mph17.2 kmh 29.72 in1006.4 mb 0.00 in0.0 mm 0.00 in/hr0.0 mm/hr 0.00 in0.0 mm
02:00 PM 95.9°F35.5°C 71.9°F22.2°C 46% 6.9 mph S11.1 kmh S 10.7 mph17.2 kmh 29.72 in1006.4 mb 0.00 in0.0 mm 0.00 in/hr0.0 mm/hr 0.00 in0.0 mm
01:55 PM 96.1°F35.6°C 71.4°F21.9°C 45% 4.5 mph S7.2 kmh S 11.4 mph18.3 kmh 29.73 in1006.8 mb 0.00 in0.0 mm 0.00 in/hr0.0 mm/hr 0.00 in0.0 mm
01:50 PM 95.7°F35.4°C 71.1°F21.7°C 45% 3.1 mph SSW5.0 kmh SSW 11.4 mph18.3 kmh 29.73 in1006.8 mb 0.00 in0.0 mm 0.00 in/hr0.0 mm/hr 0.00 in0.0 mm
01:45 PM 95.9°F35.5°C 70.6°F21.4°C 44% 3.8 mph SSW6.1 kmh SSW 10.7 mph17.2 kmh 29.74 in1007.1 mb 0.00 in0.0 mm 0.00 in/hr0.0 mm/hr 0.00 in0.0 mm
01:40 PM 96.1°F35.6°C 72.0°F22.2°C 46% 0.7 mph SW1.1 kmh SW 6.9 mph11.1 kmh 29.74 in1007.1 mb 0.00 in0.0 mm 0.00 in/hr0.0 mm/hr 0.00 in0.0 mm
01:35 PM 95.7°F35.4°C 71.1°F21.7°C 45% 1.6 mph SW2.6 kmh SW 6.0 mph9.7 kmh 29.74 in1007.1 mb 0.00 in0.0 mm 0.00 in/hr0.0 mm/hr 0.00 in0.0 mm
01:30 PM 95.5°F35.3°C 70.2°F21.2°C 44% 3.1 mph SW5.0 kmh SW 7.6 mph12.2 kmh 29.75 in1007.5 mb 0.00 in0.0 mm 0.00 in/hr0.0 mm/hr 0.00 in0.0 mm
01:25 PM 95.7°F35.4°C 69.7°F20.9°C 43% 3.8 mph SW6.1 kmh SW 7.6 mph12.2 kmh 29.76 in1007.8 mb 0.00 in0.0 mm 0.00 in/hr0.0 mm/hr 0.00 in0.0 mm
01:20 PM 95.9°F35.5°C 69.9°F21.1°C 43% 5.4 mph SSW8.7 kmh SSW 7.6 mph12.2 kmh 29.76 in1007.8 mb 0.00 in0.0 mm 0.00 in/hr0.0 mm/hr 0.00 in0.0 mm
01:15 PM 95.9°F35.5°C 69.9°F21.1°C 43% 4.5 mph SSW7.2 kmh SSW 7.6 mph12.2 kmh 29.76 in1007.8 mb 0.00 in0.0 mm 0.00 in/hr0.0 mm/hr 0.00 in0.0 mm
01:10 PM 95.7°F35.4°C 71.1°F21.7°C 45% 3.8 mph S6.1 kmh S 7.6 mph12.2 kmh 29.77 in1008.1 mb 0.00 in0.0 mm 0.00 in/hr0.0 mm/hr 0.00 in0.0 mm
01:05 PM 95.7°F35.4°C 71.1°F21.7°C 45% 2.2 mph S3.5 kmh S 7.6 mph12.2 kmh 29.77 in1008.1 mb 0.00 in0.0 mm 0.00 in/hr0.0 mm/hr 0.00 in0.0 mm
01:00 PM 95.5°F35.3°C 71.5°F21.9°C 46% 1.6 mph SSW2.6 kmh SSW 6.0 mph9.7 kmh 29.77 in1008.1 mb 0.00 in0.0 mm 0.00 in/hr0.0 mm/hr 0.00 in0.0 mm
12:55 PM 95.4°F35.2°C 70.7°F21.5°C 45% 3.1 mph WSW5.0 kmh WSW 6.9 mph11.1 kmh 29.78 in1008.5 mb 0.00 in0.0 mm 0.00 in/hr0.0 mm/hr 0.00 in0.0 mm
12:50 PM 95.2°F35.1°C 69.9°F21.1°C 44% 3.8 mph SW6.1 kmh SW 6.9 mph11.1 kmh 29.78 in1008.5 mb 0.00 in0.0 mm 0.00 in/hr0.0 mm/hr 0.00 in0.0 mm
12:45 PM 95.0°F35.0°C 70.4°F21.3°C 45% 2.2 mph SW3.5 kmh SW 6.9 mph11.1 kmh 29.78 in1008.5 mb 0.00 in0.0 mm 0.00 in/hr0.0 mm/hr 0.00 in0.0 mm
12:40 PM 95.0°F35.0°C 70.4°F21.3°C 45% 3.8 mph WSW6.1 kmh WSW 6.0 mph9.7 kmh 29.78 in1008.5 mb 0.00 in0.0 mm 0.00 in/hr0.0 mm/hr 0.00 in0.0 mm
12:35 PM 95.0°F35.0°C 71.7°F22.1°C 47% 2.2 mph WSW3.5 kmh WSW 7.6 mph12.2 kmh 29.79 in1008.8 mb 0.00 in0.0 mm 0.00 in/hr0.0 mm/hr 0.00 in0.0 mm
12:30 PM 94.5°F34.7°C 70.6°F21.4°C 46% 3.1 mph SW5.0 kmh SW 7.6 mph12.2 kmh 29.78 in1008.5 mb 0.00 in0.0 mm 0.00 in/hr0.0 mm/hr 0.00 in0.0 mm
12:25 PM 94.3°F34.6°C 71.0°F21.7°C 47% 3.1 mph SW5.0 kmh SW 6.9 mph11.1 kmh 29.79 in1008.8 mb 0.00 in0.0 mm 0.00 in/hr0.0 mm/hr 0.00 in0.0 mm
12:20 PM 93.7°F34.3°C 71.2°F21.8°C 48% 1.6 mph SSW2.6 kmh SSW 8.3 mph13.4 kmh 29.80 in1009.1 mb 0.00 in0.0 mm 0.00 in/hr0.0 mm/hr 0.00 in0.0 mm
12:15 PM 93.6°F34.2°C 71.0°F21.7°C 48% 0.7 mph SSW1.1 kmh SSW 9.2 mph14.8 kmh 29.80 in1009.1 mb 0.00 in0.0 mm 0.00 in/hr0.0 mm/hr 0.00 in0.0 mm
12:10 PM 93.9°F34.4°C 71.9°F22.2°C 49% 0.7 mph WNW1.1 kmh WNW 9.2 mph14.8 kmh 29.80 in1009.1 mb 0.00 in0.0 mm 0.00 in/hr0.0 mm/hr 0.00 in0.0 mm
12:05 PM 93.9°F34.4°C 70.7°F21.5°C 47% 3.1 mph NW5.0 kmh NW 8.3 mph13.4 kmh 29.80 in1009.1 mb 0.00 in0.0 mm 0.00 in/hr0.0 mm/hr 0.00 in0.0 mm
12:00 PM 93.6°F34.2°C 72.2°F22.3°C 50% 3.1 mph NW5.0 kmh NW 9.2 mph14.8 kmh 29.81 in1009.5 mb 0.00 in0.0 mm 0.00 in/hr0.0 mm/hr 0.00 in0.0 mm
11:55 AM 93.2°F34.0°C 72.5°F22.5°C 51% 4.5 mph W7.2 kmh W 9.2 mph14.8 kmh 29.82 in1009.8 mb 0.00 in0.0 mm 0.00 in/hr0.0 mm/hr 0.00 in0.0 mm
11:50 AM 92.7°F33.7°C 72.5°F22.5°C 52% 2.2 mph NW3.5 kmh NW 7.6 mph12.2 kmh 29.82 in1009.8 mb 0.00 in0.0 mm 0.00 in/hr0.0 mm/hr 0.00 in0.0 mm
11:45 AM 92.3°F33.5°C 72.8°F22.7°C 53% 2.2 mph WSW3.5 kmh WSW 7.6 mph12.2 kmh 29.83 in1010.2 mb 0.00 in0.0 mm 0.00 in/hr0.0 mm/hr 0.00 in0.0 mm
11:40 AM 92.1°F33.4°C 73.2°F22.9°C 54% 3.1 mph SW5.0 kmh SW 6.9 mph11.1 kmh 29.83 in1010.2 mb 0.00 in0.0 mm 0.00 in/hr0.0 mm/hr 0.00 in0.0 mm
11:35 AM 91.2°F32.9°C 73.4°F23.0°C 56% 3.8 mph SW6.1 kmh SW 7.6 mph12.2 kmh 29.83 in1010.2 mb 0.00 in0.0 mm 0.00 in/hr0.0 mm/hr 0.00 in0.0 mm
11:30 AM 91.2°F32.9°C 74.5°F23.6°C 58% 3.1 mph S5.0 kmh S 7.6 mph12.2 kmh 29.84 in1010.5 mb 0.00 in0.0 mm 0.00 in/hr0.0 mm/hr 0.00 in0.0 mm
11:25 AM 92.1°F33.4°C 74.2°F23.4°C 56% 3.1 mph S5.0 kmh S 6.9 mph11.1 kmh 29.83 in1010.2 mb 0.00 in0.0 mm 0.00 in/hr0.0 mm/hr 0.00 in0.0 mm
11:20 AM 91.2°F32.9°C 74.5°F23.6°C 58% 1.6 mph S2.6 kmh S 6.9 mph11.1 kmh 29.84 in1010.5 mb 0.00 in0.0 mm 0.00 in/hr0.0 mm/hr 0.00 in0.0 mm
11:15 AM 91.2°F32.9°C 75.5°F24.2°C 60% 3.1 mph SW5.0 kmh SW 6.0 mph9.7 kmh 29.84 in1010.5 mb 0.00 in0.0 mm 0.00 in/hr0.0 mm/hr 0.00 in0.0 mm
11:10 AM 91.2°F32.9°C 75.0°F23.9°C 59% 3.1 mph SW5.0 kmh SW 6.0 mph9.7 kmh 29.84 in1010.5 mb 0.00 in0.0 mm 0.00 in/hr0.0 mm/hr 0.00 in0.0 mm
11:05 AM 90.9°F32.7°C 75.6°F24.2°C 61% 0.7 mph SW1.1 kmh SW 7.6 mph12.2 kmh 29.84 in1010.5 mb 0.00 in0.0 mm 0.00 in/hr0.0 mm/hr 0.00 in0.0 mm
11:00 AM 90.3°F32.4°C 74.6°F23.7°C 60% 3.1 mph SW5.0 kmh SW 7.6 mph12.2 kmh 29.84 in1010.5 mb 0.00 in0.0 mm 0.00 in/hr0.0 mm/hr 0.00 in0.0 mm
10:55 AM 90.0°F32.2°C 74.8°F23.8°C 61% 3.1 mph SSW5.0 kmh SSW 6.0 mph9.7 kmh 29.85 in1010.8 mb 0.00 in0.0 mm 0.00 in/hr0.0 mm/hr 0.00 in0.0 mm
10:50 AM 89.4°F31.9°C 75.7°F24.3°C 64% 3.1 mph SW5.0 kmh SW 9.2 mph14.8 kmh 29.85 in1010.8 mb 0.00 in0.0 mm 0.00 in/hr0.0 mm/hr 0.00 in0.0 mm
10:45 AM 89.2°F31.8°C 75.5°F24.2°C 64% 4.5 mph SW7.2 kmh SW 9.2 mph14.8 kmh 29.85 in1010.8 mb 0.00 in0.0 mm 0.00 in/hr0.0 mm/hr 0.00 in0.0 mm
10:40 AM 88.9°F31.6°C 75.2°F24.0°C 64% 3.1 mph SW5.0 kmh SW 6.9 mph11.1 kmh 29.85 in1010.8 mb 0.00 in0.0 mm 0.00 in/hr0.0 mm/hr 0.00 in0.0 mm
10:35 AM 88.5°F31.4°C 74.9°F23.8°C 64% 3.8 mph SSW6.1 kmh SSW 6.9 mph11.1 kmh 29.86 in1011.2 mb 0.00 in0.0 mm 0.00 in/hr0.0 mm/hr 0.00 in0.0 mm
10:30 AM 88.0°F31.1°C 74.8°F23.8°C 65% 2.2 mph SSW3.5 kmh SSW 7.6 mph12.2 kmh 29.86 in1011.2 mb 0.00 in0.0 mm 0.00 in/hr0.0 mm/hr 0.00 in0.0 mm
10:25 AM 88.0°F31.1°C 74.8°F23.8°C 65% 6.0 mph SW9.7 kmh SW 7.6 mph12.2 kmh 29.86 in1011.2 mb 0.00 in0.0 mm 0.00 in/hr0.0 mm/hr 0.00 in0.0 mm
10:20 AM 87.8°F31.0°C 74.2°F23.4°C 64% 3.8 mph SW6.1 kmh SW 7.6 mph12.2 kmh 29.86 in1011.2 mb 0.00 in0.0 mm 0.00 in/hr0.0 mm/hr 0.00 in0.0 mm
10:15 AM 87.8°F31.0°C 75.5°F24.2°C 67% 3.1 mph SW5.0 kmh SW 9.2 mph14.8 kmh 29.87 in1011.5 mb 0.00 in0.0 mm 0.00 in/hr0.0 mm/hr 0.00 in0.0 mm
10:10 AM 86.9°F30.5°C 76.0°F24.4°C 70% 3.8 mph SW6.1 kmh SW 9.2 mph14.8 kmh 29.86 in1011.2 mb 0.00 in0.0 mm 0.00 in/hr0.0 mm/hr 0.00 in0.0 mm
10:05 AM 86.5°F30.3°C 75.7°F24.3°C 70% 6.0 mph S9.7 kmh S 11.4 mph18.3 kmh 29.87 in1011.5 mb 0.00 in0.0 mm 0.00 in/hr0.0 mm/hr 0.00 in0.0 mm
10:00 AM 86.2°F30.1°C 75.7°F24.3°C 71% 3.1 mph S5.0 kmh S 11.4 mph18.3 kmh 29.87 in1011.5 mb 0.00 in0.0 mm 0.00 in/hr0.0 mm/hr 0.00 in0.0 mm
09:55 AM 86.2°F30.1°C 76.6°F24.8°C 73% 8.3 mph SSW13.4 kmh SSW 11.4 mph18.3 kmh 29.87 in1011.5 mb 0.00 in0.0 mm 0.00 in/hr0.0 mm/hr 0.00 in0.0 mm
09:50 AM 85.6°F29.8°C 76.5°F24.7°C 74% 3.8 mph S6.1 kmh S 6.9 mph11.1 kmh 29.87 in1011.5 mb 0.00 in0.0 mm 0.00 in/hr0.0 mm/hr 0.00 in0.0 mm
09:45 AM 85.3°F29.6°C 76.5°F24.7°C 75% 0.7 mph S1.1 kmh S 6.0 mph9.7 kmh 29.87 in1011.5 mb 0.00 in0.0 mm 0.00 in/hr0.0 mm/hr 0.00 in0.0 mm
09:40 AM 85.1°F29.5°C 75.9°F24.4°C 74% 2.2 mph S3.5 kmh S 8.3 mph13.4 kmh 29.88 in1011.9 mb 0.00 in0.0 mm 0.00 in/hr0.0 mm/hr 0.00 in0.0 mm
09:35 AM 84.9°F29.4°C 76.6°F24.8°C 76% 3.1 mph SSE5.0 kmh SSE 8.3 mph13.4 kmh 29.88 in1011.9 mb 0.00 in0.0 mm 0.00 in/hr0.0 mm/hr 0.00 in0.0 mm
09:30 AM 84.7°F29.3°C 77.2°F25.1°C 78% 3.1 mph S5.0 kmh S 7.6 mph12.2 kmh 29.88 in1011.9 mb 0.00 in0.0 mm 0.00 in/hr0.0 mm/hr 0.00 in0.0 mm
09:25 AM 84.2°F29.0°C 76.3°F24.6°C 77% 1.6 mph S2.6 kmh S 7.6 mph12.2 kmh 29.88 in1011.9 mb 0.00 in0.0 mm 0.00 in/hr0.0 mm/hr 0.00 in0.0 mm
09:20 AM 84.0°F28.9°C 77.3°F25.2°C 80% 3.8 mph S6.1 kmh S 5.4 mph8.7 kmh 29.88 in1011.9 mb 0.00 in0.0 mm 0.00 in/hr0.0 mm/hr 0.00 in0.0 mm
09:15 AM 83.8°F28.8°C 77.5°F25.3°C 81% 0.7 mph SW1.1 kmh SW 4.5 mph7.2 kmh 29.89 in1012.2 mb 0.00 in0.0 mm 0.00 in/hr0.0 mm/hr 0.00 in0.0 mm
09:10 AM 83.3°F28.5°C 77.3°F25.2°C 82% Calm Calm 6.9 mph11.1 kmh 29.89 in1012.2 mb 0.00 in0.0 mm 0.00 in/hr0.0 mm/hr 0.00 in0.0 mm
09:05 AM 82.6°F28.1°C 77.0°F25.0°C 83% 1.6 mph SSW2.6 kmh SSW 6.9 mph11.1 kmh 29.89 in1012.2 mb 0.00 in0.0 mm 0.00 in/hr0.0 mm/hr 0.00 in0.0 mm
09:00 AM 82.2°F27.9°C 76.6°F24.8°C 83% 4.5 mph SSW7.2 kmh SSW 9.8 mph15.8 kmh 29.89 in1012.2 mb 0.00 in0.0 mm 0.00 in/hr0.0 mm/hr 0.00 in0.0 mm
08:55 AM 81.7°F27.6°C 76.1°F24.5°C 83% 3.1 mph SSW5.0 kmh SSW 9.8 mph15.8 kmh 29.90 in1012.5 mb 0.00 in0.0 mm 0.00 in/hr0.0 mm/hr 0.00 in0.0 mm
08:50 AM 81.5°F27.5°C 76.3°F24.6°C 84% 2.2 mph SW3.5 kmh SW 9.2 mph14.8 kmh 29.89 in1012.2 mb 0.00 in0.0 mm 0.00 in/hr0.0 mm/hr 0.00 in0.0 mm
08:45 AM 81.0°F27.2°C 76.1°F24.5°C 85% 3.8 mph SW6.1 kmh SW 9.8 mph15.8 kmh 29.89 in1012.2 mb 0.00 in0.0 mm 0.00 in/hr0.0 mm/hr 0.00 in0.0 mm
08:40 AM 80.6°F27.0°C 76.1°F24.5°C 86% 3.8 mph SSW6.1 kmh SSW 9.8 mph15.8 kmh 29.90 in1012.5 mb 0.00 in0.0 mm 0.00 in/hr0.0 mm/hr 0.00 in0.0 mm
08:35 AM 80.1°F26.7°C 76.6°F24.8°C 89% 2.2 mph SW3.5 kmh SW 9.2 mph14.8 kmh 29.90 in1012.5 mb 0.00 in0.0 mm 0.00 in/hr0.0 mm/hr 0.00 in0.0 mm
08:30 AM 79.9°F26.6°C 76.4°F24.7°C 89% 3.1 mph SW5.0 kmh SW 7.6 mph12.2 kmh 29.90 in1012.5 mb 0.00 in0.0 mm 0.00 in/hr0.0 mm/hr 0.00 in0.0 mm
08:25 AM 79.5°F26.4°C 76.4°F24.7°C 90% 4.5 mph WSW7.2 kmh WSW 7.6 mph12.2 kmh 29.90 in1012.5 mb 0.00 in0.0 mm 0.00 in/hr0.0 mm/hr 0.00 in0.0 mm
08:20 AM 79.2°F26.2°C 76.4°F24.7°C 91% 3.8 mph SW6.1 kmh SW 7.6 mph12.2 kmh 29.90 in1012.5 mb 0.00 in0.0 mm 0.00 in/hr0.0 mm/hr 0.00 in0.0 mm
08:15 AM 79.0°F26.1°C 76.2°F24.6°C 91% 1.6 mph S2.6 kmh S 6.9 mph11.1 kmh 29.90 in1012.5 mb 0.00 in0.0 mm 0.00 in/hr0.0 mm/hr 0.00 in0.0 mm
08:10 AM 78.8°F26.0°C 76.0°F24.4°C 91% 3.8 mph S6.1 kmh S 6.9 mph11.1 kmh 29.90 in1012.5 mb 0.00 in0.0 mm 0.00 in/hr0.0 mm/hr 0.00 in0.0 mm
08:05 AM 78.6°F25.9°C 76.5°F24.7°C 93% 3.1 mph S5.0 kmh S 6.9 mph11.1 kmh 29.90 in1012.5 mb 0.00 in0.0 mm 0.00 in/hr0.0 mm/hr 0.00 in0.0 mm
08:00 AM 78.4°F25.8°C 76.3°F24.6°C 93% 2.2 mph SSW3.5 kmh SSW 6.9 mph11.1 kmh 29.90 in1012.5 mb 0.00 in0.0 mm 0.00 in/hr0.0 mm/hr 0.00 in0.0 mm
07:55 AM 78.3°F25.7°C 76.1°F24.5°C 93% 3.8 mph SW6.1 kmh SW 8.3 mph13.4 kmh 29.90 in1012.5 mb 0.00 in0.0 mm 0.00 in/hr0.0 mm/hr 0.00 in0.0 mm
07:50 AM 78.3°F25.7°C 76.5°F24.7°C 94% 5.4 mph SW8.7 kmh SW 8.3 mph13.4 kmh 29.91 in1012.9 mb 0.00 in0.0 mm 0.00 in/hr0.0 mm/hr 0.00 in0.0 mm
07:45 AM 78.1°F25.6°C 76.3°F24.6°C 94% 3.1 mph SW5.0 kmh SW 6.9 mph11.1 kmh 29.91 in1012.9 mb 0.00 in0.0 mm 0.00 in/hr0.0 mm/hr 0.00 in0.0 mm
07:40 AM 77.9°F25.5°C 76.1°F24.5°C 94% 1.6 mph SW2.6 kmh SW 6.9 mph11.1 kmh 29.91 in1012.9 mb 0.00 in0.0 mm 0.00 in/hr0.0 mm/hr 0.00 in0.0 mm
07:35 AM 77.9°F25.5°C 76.1°F24.5°C 94% 3.1 mph S5.0 kmh S 4.5 mph7.2 kmh 29.91 in1012.9 mb 0.00 in0.0 mm 0.00 in/hr0.0 mm/hr 0.00 in0.0 mm
07:30 AM 77.7°F25.4°C 75.9°F24.4°C 94% 0.7 mph SSW1.1 kmh SSW 6.9 mph11.1 kmh 29.91 in1012.9 mb 0.00 in0.0 mm 0.00 in/hr0.0 mm/hr 0.00 in0.0 mm
07:25 AM 77.7°F25.4°C 75.9°F24.4°C 94% 0.7 mph SW1.1 kmh SW 6.9 mph11.1 kmh 29.91 in1012.9 mb 0.00 in0.0 mm 0.00 in/hr0.0 mm/hr 0.00 in0.0 mm
07:20 AM 77.5°F25.3°C 75.7°F24.3°C 94% 3.1 mph SW5.0 kmh SW 6.0 mph9.7 kmh 29.91 in1012.9 mb 0.00 in0.0 mm 0.00 in/hr0.0 mm/hr 0.00 in0.0 mm
07:15 AM 77.5°F25.3°C 75.7°F24.3°C 94% 2.2 mph SW3.5 kmh SW 6.0 mph9.7 kmh 29.91 in1012.9 mb 0.00 in0.0 mm 0.00 in/hr0.0 mm/hr 0.00 in0.0 mm
07:10 AM 77.5°F25.3°C 75.7°F24.3°C 94% Calm Calm 5.4 mph8.7 kmh 29.91 in1012.9 mb 0.00 in0.0 mm 0.00 in/hr0.0 mm/hr 0.00 in0.0 mm
07:05 AM 77.5°F25.3°C 76.1°F24.5°C 95% 2.2 mph S3.5 kmh S 5.4 mph8.7 kmh 29.91 in1012.9 mb 0.00 in0.0 mm 0.00 in/hr0.0 mm/hr 0.00 in0.0 mm
07:00 AM 77.5°F25.3°C 76.1°F24.5°C 95% 2.2 mph S3.5 kmh S 5.4 mph8.7 kmh 29.91 in1012.9 mb 0.00 in0.0 mm 0.00 in/hr0.0 mm/hr 0.00 in0.0 mm
06:55 AM 77.5°F25.3°C 76.1°F24.5°C 95% 3.1 mph S5.0 kmh S 5.4 mph8.7 kmh 29.91 in1012.9 mb 0.00 in0.0 mm 0.00 in/hr0.0 mm/hr 0.00 in0.0 mm
06:50 AM 77.4°F25.2°C 75.9°F24.4°C 95% 2.2 mph S3.5 kmh S 5.4 mph8.7 kmh 29.91 in1012.9 mb 0.00 in0.0 mm 0.00 in/hr0.0 mm/hr 0.00 in0.0 mm
06:45 AM 77.4°F25.2°C 75.9°F24.4°C 95% 1.6 mph S2.6 kmh S 3.8 mph6.1 kmh 29.91 in1012.9 mb 0.00 in0.0 mm 0.00 in/hr0.0 mm/hr 0.00 in0.0 mm
06:40 AM 77.4°F25.2°C 75.9°F24.4°C 95% 1.6 mph SSW2.6 kmh SSW 4.5 mph7.2 kmh 29.91 in1012.9 mb 0.00 in0.0 mm 0.00 in/hr0.0 mm/hr 0.00 in0.0 mm
06:35 AM 77.5°F25.3°C 76.1°F24.5°C 95% 0.7 mph SSW1.1 kmh SSW 4.5 mph7.2 kmh 29.91 in1012.9 mb 0.00 in0.0 mm 0.00 in/hr0.0 mm/hr 0.00 in0.0 mm
06:30 AM 77.5°F25.3°C 76.1°F24.5°C 95% Calm Calm 3.8 mph6.1 kmh 29.91 in1012.9 mb 0.00 in0.0 mm 0.00 in/hr0.0 mm/hr 0.00 in0.0 mm
06:25 AM 77.7°F25.4°C 76.2°F24.6°C 95% 0.7 mph WSW1.1 kmh WSW 3.8 mph6.1 kmh 29.90 in1012.5 mb 0.00 in0.0 mm 0.00 in/hr0.0 mm/hr 0.00 in0.0 mm
06:20 AM 77.7°F25.4°C 76.2°F24.6°C 95% 0.7 mph WSW1.1 kmh WSW 4.5 mph7.2 kmh 29.90 in1012.5 mb 0.00 in0.0 mm 0.00 in/hr0.0 mm/hr 0.00 in0.0 mm
06:15 AM 77.7°F25.4°C 76.2°F24.6°C 95% 2.2 mph SSW3.5 kmh SSW 4.5 mph7.2 kmh 29.89 in1012.2 mb 0.00 in0.0 mm 0.00 in/hr0.0 mm/hr 0.00 in0.0 mm
06:10 AM 77.7°F25.4°C 76.2°F24.6°C 95% 0.7 mph SE1.1 kmh SE 3.8 mph6.1 kmh 29.89 in1012.2 mb 0.00 in0.0 mm 0.00 in/hr0.0 mm/hr 0.00 in0.0 mm
06:05 AM 77.9°F25.5°C 76.4°F24.7°C 95% 0.7 mph SE1.1 kmh SE 6.0 mph9.7 kmh 29.89 in1012.2 mb 0.00 in0.0 mm 0.00 in/hr0.0 mm/hr 0.00 in0.0 mm
06:00 AM 77.9°F25.5°C 76.4°F24.7°C 95% 1.6 mph SSW2.6 kmh SSW 6.0 mph9.7 kmh 29.89 in1012.2 mb 0.00 in0.0 mm 0.00 in/hr0.0 mm/hr 0.00 in0.0 mm
05:55 AM 77.9°F25.5°C 76.4°F24.7°C 95% 3.8 mph SSW6.1 kmh SSW 6.0 mph9.7 kmh 29.89 in1012.2 mb 0.00 in0.0 mm 0.00 in/hr0.0 mm/hr 0.00 in0.0 mm
05:50 AM 77.9°F25.5°C 76.4°F24.7°C 95% 2.2 mph SSW3.5 kmh SSW 6.0 mph9.7 kmh 29.89 in1012.2 mb 0.00 in0.0 mm 0.00 in/hr0.0 mm/hr 0.00 in0.0 mm
05:45 AM 77.9°F25.5°C 76.4°F24.7°C 95% 1.6 mph SW2.6 kmh SW 6.0 mph9.7 kmh 29.89 in1012.2 mb 0.00 in0.0 mm 0.00 in/hr0.0 mm/hr 0.00 in0.0 mm
05:40 AM 77.9°F25.5°C 76.4°F24.7°C 95% 1.6 mph SW2.6 kmh SW 6.0 mph9.7 kmh 29.89 in1012.2 mb 0.00 in0.0 mm 0.00 in/hr0.0 mm/hr 0.00 in0.0 mm
05:35 AM 77.9°F25.5°C 76.4°F24.7°C 95% 3.1 mph SW5.0 kmh SW 4.5 mph7.2 kmh 29.89 in1012.2 mb 0.00 in0.0 mm 0.00 in/hr0.0 mm/hr 0.00 in0.0 mm
05:30 AM 77.9°F25.5°C 76.4°F24.7°C 95% 3.1 mph SSW5.0 kmh SSW 5.4 mph8.7 kmh 29.89 in1012.2 mb 0.00 in0.0 mm 0.00 in/hr0.0 mm/hr 0.00 in0.0 mm
05:25 AM 77.9°F25.5°C 76.4°F24.7°C 95% 1.6 mph S2.6 kmh S 5.4 mph8.7 kmh 29.89 in1012.2 mb 0.00 in0.0 mm 0.00 in/hr0.0 mm/hr 0.00 in0.0 mm
05:20 AM 78.1°F25.6°C 76.6°F24.8°C 95% 1.6 mph SW2.6 kmh SW 6.0 mph9.7 kmh 29.89 in1012.2 mb 0.00 in0.0 mm 0.00 in/hr0.0 mm/hr 0.00 in0.0 mm
05:15 AM 78.1°F25.6°C 76.6°F24.8°C 95% 2.2 mph SW3.5 kmh SW 6.0 mph9.7 kmh 29.89 in1012.2 mb 0.00 in0.0 mm 0.00 in/hr0.0 mm/hr 0.00 in0.0 mm
05:10 AM 78.3°F25.7°C 76.8°F24.9°C 95% 4.5 mph SW7.2 kmh SW 6.0 mph9.7 kmh 29.89 in1012.2 mb 0.00 in0.0 mm 0.00 in/hr0.0 mm/hr 0.00 in0.0 mm
05:05 AM 78.3°F25.7°C 76.8°F24.9°C 95% 1.6 mph SW2.6 kmh SW 6.9 mph11.1 kmh 29.89 in1012.2 mb 0.00 in0.0 mm 0.00 in/hr0.0 mm/hr 0.00 in0.0 mm
05:00 AM 78.3°F25.7°C 76.8°F24.9°C 95% 1.6 mph SSW2.6 kmh SSW 6.9 mph11.1 kmh 29.89 in1012.2 mb 0.00 in0.0 mm 0.00 in/hr0.0 mm/hr 0.00 in0.0 mm
04:55 AM 78.3°F25.7°C 76.8°F24.9°C 95% 1.6 mph SW2.6 kmh SW 6.0 mph9.7 kmh 29.89 in1012.2 mb 0.00 in0.0 mm 0.00 in/hr0.0 mm/hr 0.00 in0.0 mm
04:50 AM 78.3°F25.7°C 76.5°F24.7°C 94% 2.2 mph SSW3.5 kmh SSW 6.9 mph11.1 kmh 29.89 in1012.2 mb 0.00 in0.0 mm 0.00 in/hr0.0 mm/hr 0.00 in0.0 mm
04:45 AM 78.4°F25.8°C 76.6°F24.8°C 94% 2.2 mph SSE3.5 kmh SSE 6.9 mph11.1 kmh 29.89 in1012.2 mb 0.00 in0.0 mm 0.00 in/hr0.0 mm/hr 0.00 in0.0 mm
04:40 AM 78.4°F25.8°C 77.0°F25.0°C 95% 3.8 mph SSE6.1 kmh SSE 6.0 mph9.7 kmh 29.88 in1011.9 mb 0.00 in0.0 mm 0.00 in/hr0.0 mm/hr 0.00 in0.0 mm
04:35 AM 78.4°F25.8°C 76.6°F24.8°C 94% Calm Calm 6.0 mph9.7 kmh 29.89 in1012.2 mb 0.00 in0.0 mm 0.00 in/hr0.0 mm/hr 0.00 in0.0 mm
04:30 AM 78.4°F25.8°C 76.6°F24.8°C 94% 2.2 mph SSW3.5 kmh SSW 7.6 mph12.2 kmh 29.89 in1012.2 mb 0.00 in0.0 mm 0.00 in/hr0.0 mm/hr 0.00 in0.0 mm
04:25 AM 78.4°F25.8°C 76.6°F24.8°C 94% 3.1 mph SW5.0 kmh SW 7.6 mph12.2 kmh 29.90 in1012.5 mb 0.00 in0.0 mm 0.00 in/hr0.0 mm/hr 0.00 in0.0 mm
04:20 AM 78.4°F25.8°C 76.6°F24.8°C 94% 1.6 mph S2.6 kmh S 7.6 mph12.2 kmh 29.89 in1012.2 mb 0.00 in0.0 mm 0.00 in/hr0.0 mm/hr 0.00 in0.0 mm
04:15 AM 78.4°F25.8°C 76.6°F24.8°C 94% 3.8 mph S6.1 kmh S 7.6 mph12.2 kmh 29.89 in1012.2 mb 0.00 in0.0 mm 0.00 in/hr0.0 mm/hr 0.00 in0.0 mm
04:10 AM 78.4°F25.8°C 76.6°F24.8°C 94% 3.1 mph S5.0 kmh S 6.9 mph11.1 kmh 29.89 in1012.2 mb 0.00 in0.0 mm 0.00 in/hr0.0 mm/hr 0.00 in0.0 mm
04:05 AM 78.6°F25.9°C 76.8°F24.9°C 94% 3.1 mph SW5.0 kmh SW 5.4 mph8.7 kmh 29.89 in1012.2 mb 0.00 in0.0 mm 0.00 in/hr0.0 mm/hr 0.00 in0.0 mm
04:00 AM 78.6°F25.9°C 76.8°F24.9°C 94% 1.6 mph WSW2.6 kmh WSW 5.4 mph8.7 kmh 29.89 in1012.2 mb 0.00 in0.0 mm 0.00 in/hr0.0 mm/hr 0.00 in0.0 mm
03:55 AM 78.6°F25.9°C 76.8°F24.9°C 94% 0.7 mph SW1.1 kmh SW 5.4 mph8.7 kmh 29.89 in1012.2 mb 0.00 in0.0 mm 0.00 in/hr0.0 mm/hr 0.00 in0.0 mm
03:50 AM 78.6°F25.9°C 76.8°F24.9°C 94% 3.1 mph SSW5.0 kmh SSW 5.4 mph8.7 kmh 29.90 in1012.5 mb 0.00 in0.0 mm 0.00 in/hr0.0 mm/hr 0.00 in0.0 mm
03:45 AM 78.6°F25.9°C 76.8°F24.9°C 94% 1.6 mph SW2.6 kmh SW 6.9 mph11.1 kmh 29.90 in1012.5 mb 0.00 in0.0 mm 0.00 in/hr0.0 mm/hr 0.00 in0.0 mm
03:40 AM 78.8°F26.0°C 76.7°F24.8°C 93% 0.7 mph SW1.1 kmh SW 6.9 mph11.1 kmh 29.90 in1012.5 mb 0.00 in0.0 mm 0.00 in/hr0.0 mm/hr 0.00 in0.0 mm
03:35 AM 78.8°F26.0°C 76.7°F24.8°C 93% 4.5 mph SSW7.2 kmh SSW 6.9 mph11.1 kmh 29.90 in1012.5 mb 0.00 in0.0 mm 0.00 in/hr0.0 mm/hr 0.00 in0.0 mm
03:30 AM 78.8°F26.0°C 76.7°F24.8°C 93% 1.6 mph SW2.6 kmh SW 6.0 mph9.7 kmh 29.90 in1012.5 mb 0.00 in0.0 mm 0.00 in/hr0.0 mm/hr 0.00 in0.0 mm
03:25 AM 78.8°F26.0°C 76.7°F24.8°C 93% 1.6 mph SSW2.6 kmh SSW 4.5 mph7.2 kmh 29.90 in1012.5 mb 0.00 in0.0 mm 0.00 in/hr0.0 mm/hr 0.00 in0.0 mm
03:20 AM 78.8°F26.0°C 76.7°F24.8°C 93% 2.2 mph S3.5 kmh S 4.5 mph7.2 kmh 29.90 in1012.5 mb 0.00 in0.0 mm 0.00 in/hr0.0 mm/hr 0.00 in0.0 mm
03:15 AM 78.8°F26.0°C 76.7°F24.8°C 93% 1.6 mph S2.6 kmh S 6.0 mph9.7 kmh 29.90 in1012.5 mb 0.00 in0.0 mm 0.00 in/hr0.0 mm/hr 0.00 in0.0 mm
03:10 AM 78.8°F26.0°C 76.7°F24.8°C 93% 0.7 mph SSW1.1 kmh SSW 6.0 mph9.7 kmh 29.90 in1012.5 mb 0.00 in0.0 mm 0.00 in/hr0.0 mm/hr 0.00 in0.0 mm
03:05 AM 78.8°F26.0°C 76.7°F24.8°C 93% 3.1 mph SW5.0 kmh SW 3.8 mph6.1 kmh 29.90 in1012.5 mb 0.00 in0.0 mm 0.00 in/hr0.0 mm/hr 0.00 in0.0 mm
03:00 AM 79.0°F26.1°C 76.5°F24.7°C 92% 2.2 mph S3.5 kmh S 3.8 mph6.1 kmh 29.91 in1012.9 mb 0.00 in0.0 mm 0.00 in/hr0.0 mm/hr 0.00 in0.0 mm
02:55 AM 79.0°F26.1°C 76.5°F24.7°C 92% 3.1 mph S5.0 kmh S 5.4 mph8.7 kmh 29.91 in1012.9 mb 0.00 in0.0 mm 0.00 in/hr0.0 mm/hr 0.00 in0.0 mm
02:50 AM 79.0°F26.1°C 76.5°F24.7°C 92% 1.6 mph SSW2.6 kmh SSW 6.9 mph11.1 kmh 29.91 in1012.9 mb 0.00 in0.0 mm 0.00 in/hr0.0 mm/hr 0.00 in0.0 mm
02:45 AM 79.2°F26.2°C 76.7°F24.8°C 92% 0.7 mph SW1.1 kmh SW 6.9 mph11.1 kmh 29.91 in1012.9 mb 0.00 in0.0 mm 0.00 in/hr0.0 mm/hr 0.00 in0.0 mm
02:40 AM 79.2°F26.2°C 76.7°F24.8°C 92% 3.8 mph SW6.1 kmh SW 6.9 mph11.1 kmh 29.91 in1012.9 mb 0.00 in0.0 mm 0.00 in/hr0.0 mm/hr 0.00 in0.0 mm
02:35 AM 79.2°F26.2°C 76.7°F24.8°C 92% Calm Calm 6.9 mph11.1 kmh 29.91 in1012.9 mb 0.00 in0.0 mm 0.00 in/hr0.0 mm/hr 0.00 in0.0 mm
02:30 AM 79.2°F26.2°C 76.7°F24.8°C 92% 2.2 mph SSW3.5 kmh SSW 6.9 mph11.1 kmh 29.90 in1012.5 mb 0.00 in0.0 mm 0.00 in/hr0.0 mm/hr 0.00 in0.0 mm
02:25 AM 79.2°F26.2°C 76.7°F24.8°C 92% 1.6 mph SSW2.6 kmh SSW 5.4 mph8.7 kmh 29.90 in1012.5 mb 0.00 in0.0 mm 0.00 in/hr0.0 mm/hr 0.00 in0.0 mm
02:20 AM 79.2°F26.2°C 76.7°F24.8°C 92% 2.2 mph S3.5 kmh S 4.5 mph7.2 kmh 29.90 in1012.5 mb 0.00 in0.0 mm 0.00 in/hr0.0 mm/hr 0.00 in0.0 mm
02:15 AM 79.2°F26.2°C 76.7°F24.8°C 92% 2.2 mph SSW3.5 kmh SSW 6.0 mph9.7 kmh 29.91 in1012.9 mb 0.00 in0.0 mm 0.00 in/hr0.0 mm/hr 0.00 in0.0 mm
02:10 AM 79.2°F26.2°C 76.7°F24.8°C 92% 2.2 mph SW3.5 kmh SW 6.9 mph11.1 kmh 29.91 in1012.9 mb 0.00 in0.0 mm 0.00 in/hr0.0 mm/hr 0.00 in0.0 mm
02:05 AM 79.3°F26.3°C 76.9°F24.9°C 92% 0.7 mph SW1.1 kmh SW 6.9 mph11.1 kmh 29.91 in1012.9 mb 0.00 in0.0 mm 0.00 in/hr0.0 mm/hr 0.00 in0.0 mm
02:00 AM 79.3°F26.3°C 76.9°F24.9°C 92% 1.6 mph SW2.6 kmh SW 5.4 mph8.7 kmh 29.91 in1012.9 mb 0.00 in0.0 mm 0.00 in/hr0.0 mm/hr 0.00 in0.0 mm
01:55 AM 79.3°F26.3°C 76.9°F24.9°C 92% 3.1 mph SSW5.0 kmh SSW 5.4 mph8.7 kmh 29.91 in1012.9 mb 0.00 in0.0 mm 0.00 in/hr0.0 mm/hr 0.00 in0.0 mm
01:50 AM 79.3°F26.3°C 76.9°F24.9°C 92% 3.8 mph S6.1 kmh S 5.4 mph8.7 kmh 29.91 in1012.9 mb 0.00 in0.0 mm 0.00 in/hr0.0 mm/hr 0.00 in0.0 mm
01:45 AM 79.3°F26.3°C 76.9°F24.9°C 92% 0.7 mph SSW1.1 kmh SSW 4.5 mph7.2 kmh 29.90 in1012.5 mb 0.00 in0.0 mm 0.00 in/hr0.0 mm/hr 0.00 in0.0 mm
01:40 AM 79.3°F26.3°C 76.9°F24.9°C 92% Calm Calm 5.4 mph8.7 kmh 29.90 in1012.5 mb 0.00 in0.0 mm 0.00 in/hr0.0 mm/hr 0.00 in0.0 mm
01:35 AM 79.3°F26.3°C 76.9°F24.9°C 92% 1.6 mph S2.6 kmh S 5.4 mph8.7 kmh 29.91 in1012.9 mb 0.00 in0.0 mm 0.00 in/hr0.0 mm/hr 0.00 in0.0 mm
01:30 AM 79.3°F26.3°C 76.9°F24.9°C 92% 3.1 mph SSE5.0 kmh SSE 5.4 mph8.7 kmh 29.90 in1012.5 mb 0.00 in0.0 mm 0.00 in/hr0.0 mm/hr 0.00 in0.0 mm
01:25 AM 79.5°F26.4°C 77.1°F25.1°C 92% 0.7 mph SE1.1 kmh SE 4.5 mph7.2 kmh 29.91 in1012.9 mb 0.00 in0.0 mm 0.00 in/hr0.0 mm/hr 0.00 in0.0 mm
01:20 AM 79.5°F26.4°C 77.1°F25.1°C 92% 3.1 mph SSW5.0 kmh SSW 4.5 mph7.2 kmh 29.91 in1012.9 mb 0.00 in0.0 mm 0.00 in/hr0.0 mm/hr 0.00 in0.0 mm
01:15 AM 79.7°F26.5°C 77.2°F25.1°C 92% Calm Calm 3.8 mph6.1 kmh 29.91 in1012.9 mb 0.00 in0.0 mm 0.00 in/hr0.0 mm/hr 0.00 in0.0 mm
01:10 AM 79.7°F26.5°C 76.9°F24.9°C 91% 1.6 mph WSW2.6 kmh WSW 6.9 mph11.1 kmh 29.91 in1012.9 mb 0.00 in0.0 mm 0.00 in/hr0.0 mm/hr 0.00 in0.0 mm
01:05 AM 79.9°F26.6°C 77.1°F25.1°C 91% 1.6 mph WSW2.6 kmh WSW 6.9 mph11.1 kmh 29.91 in1012.9 mb 0.00 in0.0 mm 0.00 in/hr0.0 mm/hr 0.00 in0.0 mm
01:00 AM 79.9°F26.6°C 77.1°F25.1°C 91% 1.6 mph SSW2.6 kmh SSW 4.5 mph7.2 kmh 29.91 in1012.9 mb 0.00 in0.0 mm 0.00 in/hr0.0 mm/hr 0.00 in0.0 mm
12:55 AM 79.9°F26.6°C 77.1°F25.1°C 91% 0.7 mph S1.1 kmh S 4.5 mph7.2 kmh 29.90 in1012.5 mb 0.00 in0.0 mm 0.00 in/hr0.0 mm/hr 0.00 in0.0 mm
12:50 AM 79.9°F26.6°C 77.1°F25.1°C 91% 2.2 mph SSW3.5 kmh SSW 4.5 mph7.2 kmh 29.90 in1012.5 mb 0.00 in0.0 mm 0.00 in/hr0.0 mm/hr 0.00 in0.0 mm
12:45 AM 80.1°F26.7°C 77.3°F25.2°C 91% 2.2 mph SSW3.5 kmh SSW 4.5 mph7.2 kmh 29.90 in1012.5 mb 0.00 in0.0 mm 0.00 in/hr0.0 mm/hr 0.00 in0.0 mm
12:40 AM 80.1°F26.7°C 77.3°F25.2°C 91% 2.2 mph SSW3.5 kmh SSW 4.5 mph7.2 kmh 29.91 in1012.9 mb 0.00 in0.0 mm 0.00 in/hr0.0 mm/hr 0.00 in0.0 mm
12:35 AM 80.1°F26.7°C 76.9°F24.9°C 90% 2.2 mph SSW3.5 kmh SSW 6.0 mph9.7 kmh 29.91 in1012.9 mb 0.00 in0.0 mm 0.00 in/hr0.0 mm/hr 0.00 in0.0 mm
12:30 AM 80.1°F26.7°C 76.9°F24.9°C 90% Calm Calm 6.0 mph9.7 kmh 29.90 in1012.5 mb 0.00 in0.0 mm 0.00 in/hr0.0 mm/hr 0.00 in0.0 mm
12:25 AM 80.1°F26.7°C 76.9°F24.9°C 90% 2.2 mph S3.5 kmh S 5.4 mph8.7 kmh 29.91 in1012.9 mb 0.00 in0.0 mm 0.00 in/hr0.0 mm/hr 0.00 in0.0 mm
12:20 AM 80.1°F26.7°C 76.9°F24.9°C 90% Calm Calm 5.4 mph8.7 kmh 29.90 in1012.5 mb 0.00 in0.0 mm 0.00 in/hr0.0 mm/hr 0.00 in0.0 mm
12:15 AM 80.1°F26.7°C 76.9°F24.9°C 90% Calm Calm 7.6 mph12.2 kmh 29.90 in1012.5 mb 0.00 in0.0 mm 0.00 in/hr0.0 mm/hr 0.00 in0.0 mm
12:10 AM 80.1°F26.7°C 76.9°F24.9°C 90% 0.7 mph E1.1 kmh E 7.6 mph12.2 kmh 29.89 in1012.2 mb 0.00 in0.0 mm 0.00 in/hr0.0 mm/hr 0.00 in0.0 mm
12:05 AM 80.1°F26.7°C 76.9°F24.9°C 90% 0.7 mph SE1.1 kmh SE 6.0 mph9.7 kmh 29.89 in1012.2 mb 0.00 in0.0 mm 0.00 in/hr0.0 mm/hr 0.00 in0.0 mm
12:00 AM 80.1°F26.7°C 76.9°F24.9°C 90% 0.7 mph SSE1.1 kmh SSE 6.0 mph9.7 kmh 29.89 in1012.2 mb 0.00 in0.0 mm 0.00 in/hr0.0 mm/hr 0.00 in0.0 mm